sensor_id;sensor_type;location;lat;lon;timestamp;pressure;altitude;pressure_sealevel;temperature;humidity
18784;BME280;9520;50.954;6.968;2023-04-28T00:00:18;100725.75;;;20.48;33.22
18784;BME280;9520;50.954;6.968;2023-04-28T00:00:39;100722.13;;;20.49;32.73
18784;BME280;9520;50.954;6.968;2023-04-28T00:01:01;100719.38;;;20.50;33.21
18784;BME280;9520;50.954;6.968;2023-04-28T00:01:26;100717.44;;;20.52;33.30
18784;BME280;9520;50.954;6.968;2023-04-28T00:01:49;100719.31;;;20.52;32.96
18784;BME280;9520;50.954;6.968;2023-04-28T00:02:10;100710.66;;;20.47;32.97
18784;BME280;9520;50.954;6.968;2023-04-28T00:02:32;100716.09;;;20.45;32.88
18784;BME280;9520;50.954;6.968;2023-04-28T00:02:55;100712.34;;;20.48;33.30
18784;BME280;9520;50.954;6.968;2023-04-28T00:03:17;100721.63;;;20.42;33.47
18784;BME280;9520;50.954;6.968;2023-04-28T00:03:40;100711.31;;;20.35;33.62
18784;BME280;9520;50.954;6.968;2023-04-28T00:04:02;100725.38;;;20.38;33.52
18784;BME280;9520;50.954;6.968;2023-04-28T00:04:25;100720.03;;;20.38;33.98
18784;BME280;9520;50.954;6.968;2023-04-28T00:04:47;100717.09;;;20.43;33.69
18784;BME280;9520;50.954;6.968;2023-04-28T00:05:09;100720.03;;;20.38;33.88
18784;BME280;9520;50.954;6.968;2023-04-28T00:05:33;100718.94;;;20.42;33.80
18784;BME280;9520;50.954;6.968;2023-04-28T00:05:55;100715.28;;;20.43;34.06
18784;BME280;9520;50.954;6.968;2023-04-28T00:06:18;100710.66;;;20.47;33.69
18784;BME280;9520;50.954;6.968;2023-04-28T00:06:39;100714.34;;;20.44;33.94
18784;BME280;9520;50.954;6.968;2023-04-28T00:07:02;100711.59;;;20.46;34.00
18784;BME280;9520;50.954;6.968;2023-04-28T00:07:25;100713.59;;;20.42;34.04
18784;BME280;9520;50.954;6.968;2023-04-28T00:07:47;100712.59;;;20.43;33.77
18784;BME280;9520;50.954;6.968;2023-04-28T00:08:08;100714.34;;;20.44;34.06
18784;BME280;9520;50.954;6.968;2023-04-28T00:08:31;100709.31;;;20.38;34.05
18784;BME280;9520;50.954;6.968;2023-04-28T00:08:53;100710.75;;;20.28;33.92
18784;BME280;9520;50.954;6.968;2023-04-28T00:09:16;100711.38;;;20.33;33.98
18784;BME280;9520;50.954;6.968;2023-04-28T00:09:39;100707.75;;;20.34;33.79
18784;BME280;9520;50.954;6.968;2023-04-28T00:10:03;100710.44;;;20.34;33.88
18784;BME280;9520;50.954;6.968;2023-04-28T00:10:26;100712.03;;;20.21;33.96
18784;BME280;9520;50.954;6.968;2023-04-28T00:10:48;100697.59;;;20.08;33.90
18784;BME280;9520;50.954;6.968;2023-04-28T00:11:11;100707.88;;;20.15;34.13
18784;BME280;9520;50.954;6.968;2023-04-28T00:11:32;100693.63;;;20.15;33.81
18784;BME280;9520;50.954;6.968;2023-04-28T00:11:54;100711.09;;;20.22;34.04
18784;BME280;9520;50.954;6.968;2023-04-28T00:12:16;100712.66;;;20.26;34.37
18784;BME280;9520;50.954;6.968;2023-04-28T00:12:37;100696.72;;;20.23;34.38
18784;BME280;9520;50.954;6.968;2023-04-28T00:13:00;100704.44;;;20.29;34.27
18784;BME280;9520;50.954;6.968;2023-04-28T00:13:22;100662.16;;;20.03;34.04
18784;BME280;9520;50.954;6.968;2023-04-28T00:13:44;100704.31;;;20.32;33.72
18784;BME280;9520;50.954;6.968;2023-04-28T00:14:06;100688.19;;;20.16;34.04
18784;BME280;9520;50.954;6.968;2023-04-28T00:14:27;100705.47;;;20.26;34.27
18784;BME280;9520;50.954;6.968;2023-04-28T00:14:50;100704.44;;;20.29;34.55
18784;BME280;9520;50.954;6.968;2023-04-28T00:15:12;100697.69;;;20.22;34.37
18784;BME280;9520;50.954;6.968;2023-04-28T00:15:33;100692.97;;;20.27;33.78
18784;BME280;9520;50.954;6.968;2023-04-28T00:15:55;100697.53;;;20.25;33.86
18784;BME280;9520;50.954;6.968;2023-04-28T00:16:17;100701.94;;;20.26;33.86
18784;BME280;9520;50.954;6.968;2023-04-28T00:16:40;100708.06;;;20.28;34.26
18784;BME280;9520;50.954;6.968;2023-04-28T00:17:02;100697.53;;;20.25;34.23
18784;BME280;9520;50.954;6.968;2023-04-28T00:17:24;100687.94;;;20.21;33.84
18784;BME280;9520;50.954;6.968;2023-04-28T00:17:46;100699.19;;;20.27;33.70
18784;BME280;9520;50.954;6.968;2023-04-28T00:18:09;100674.13;;;19.96;34.12
18784;BME280;9520;50.954;6.968;2023-04-28T00:18:31;100704.41;;;20.13;33.74
18784;BME280;9520;50.954;6.968;2023-04-28T00:18:54;100706.06;;;20.16;33.85
18784;BME280;9520;50.954;6.968;2023-04-28T00:19:53;100699.50;;;20.21;34.13
18784;BME280;9520;50.954;6.968;2023-04-28T00:20:16;100687.38;;;20.14;34.15
18784;BME280;9520;50.954;6.968;2023-04-28T00:20:38;100705.56;;;20.25;34.36
18784;BME280;9520;50.954;6.968;2023-04-28T00:21:00;100698.56;;;20.22;34.10
18784;BME280;9520;50.954;6.968;2023-04-28T00:21:22;100695.03;;;20.22;33.94
18784;BME280;9520;50.954;6.968;2023-04-28T00:21:44;100702.94;;;20.23;33.80
18784;BME280;9520;50.954;6.968;2023-04-28T00:22:07;100701.06;;;20.25;33.68
18784;BME280;9520;50.954;6.968;2023-04-28T00:22:29;100697.44;;;20.26;33.79
18784;BME280;9520;50.954;6.968;2023-04-28T00:22:51;100696.84;;;20.21;34.18
18784;BME280;9520;50.954;6.968;2023-04-28T00:23:13;100701.13;;;20.24;34.52
18784;BME280;9520;50.954;6.968;2023-04-28T00:23:36;100704.31;;;20.15;34.38
18784;BME280;9520;50.954;6.968;2023-04-28T00:23:58;100695.28;;;20.17;34.13
18784;BME280;9520;50.954;6.968;2023-04-28T00:24:20;100691.72;;;20.17;34.33
18784;BME280;9520;50.954;6.968;2023-04-28T00:24:43;100696.03;;;20.19;34.12
18784;BME280;9520;50.954;6.968;2023-04-28T00:25:06;100692.41;;;20.20;34.04
18784;BME280;9520;50.954;6.968;2023-04-28T00:25:29;100700.19;;;20.25;33.92
18784;BME280;9520;50.954;6.968;2023-04-28T00:25:50;100702.88;;;20.25;33.60
18784;BME280;9520;50.954;6.968;2023-04-28T00:26:12;100703.66;;;20.27;33.58
18784;BME280;9520;50.954;6.968;2023-04-28T00:26:36;100681.16;;;20.14;33.53
18784;BME280;9520;50.954;6.968;2023-04-28T00:27:00;100691.56;;;20.20;33.69
18784;BME280;9520;50.954;6.968;2023-04-28T00:27:23;100699.19;;;20.27;33.73
18784;BME280;9520;50.954;6.968;2023-04-28T00:27:45;100696.41;;;20.29;33.69
18784;BME280;9520;50.954;6.968;2023-04-28T00:28:06;100687.75;;;20.24;33.52
18784;BME280;9520;50.954;6.968;2023-04-28T00:28:28;100696.41;;;20.29;33.54
18784;BME280;9520;50.954;6.968;2023-04-28T00:28:55;100694.78;;;20.26;33.21
18784;BME280;9520;50.954;6.968;2023-04-28T00:29:17;100693.72;;;20.29;33.29
18784;BME280;9520;50.954;6.968;2023-04-28T00:29:39;100694.06;;;20.23;33.22
18784;BME280;9520;50.954;6.968;2023-04-28T00:30:01;100688.63;;;20.24;33.63
18784;BME280;9520;50.954;6.968;2023-04-28T00:30:24;100692.16;;;20.25;33.45
18784;BME280;9520;50.954;6.968;2023-04-28T00:30:46;100646.94;;;20.03;33.30
18784;BME280;9520;50.954;6.968;2023-04-28T00:31:11;100677.03;;;20.24;33.23
18784;BME280;9520;50.954;6.968;2023-04-28T00:31:34;100676.97;;;20.25;33.29
18784;BME280;9520;50.954;6.968;2023-04-28T00:31:57;100680.44;;;20.27;33.42
18784;BME280;9520;50.954;6.968;2023-04-28T00:32:18;100674.34;;;20.24;33.41
18784;BME280;9520;50.954;6.968;2023-04-28T00:32:41;100673.13;;;20.31;33.35
18784;BME280;9520;50.954;6.968;2023-04-28T00:33:03;100673.34;;;20.26;33.76
18784;BME280;9520;50.954;6.968;2023-04-28T00:33:25;100671.53;;;20.27;33.59
18784;BME280;9520;50.954;6.968;2023-04-28T00:33:47;100670.66;;;20.26;33.49
18784;BME280;9520;50.954;6.968;2023-04-28T00:34:09;100665.31;;;20.26;33.41
18784;BME280;9520;50.954;6.968;2023-04-28T00:34:34;100679.34;;;20.32;33.08
18784;BME280;9520;50.954;6.968;2023-04-28T00:34:57;100665.84;;;20.33;33.31
18784;BME280;9520;50.954;6.968;2023-04-28T00:35:20;100663.31;;;20.30;33.53
18784;BME280;9520;50.954;6.968;2023-04-28T00:35:42;100667.66;;;20.33;33.54
18784;BME280;9520;50.954;6.968;2023-04-28T00:36:04;100669.50;;;20.32;33.45
18784;BME280;9520;50.954;6.968;2023-04-28T00:36:26;100666.94;;;20.29;33.82
18784;BME280;9520;50.954;6.968;2023-04-28T00:36:52;100666.16;;;20.27;33.96
18784;BME280;9520;50.954;6.968;2023-04-28T00:37:15;100661.53;;;20.31;34.01
18784;BME280;9520;50.954;6.968;2023-04-28T00:37:37;100669.50;;;20.32;33.96
18784;BME280;9520;50.954;6.968;2023-04-28T00:37:59;100662.69;;;20.25;33.80
18784;BME280;9520;50.954;6.968;2023-04-28T00:38:22;100660.19;;;20.22;33.70
18784;BME280;9520;50.954;6.968;2023-04-28T00:38:45;100665.63;;;20.20;33.89
18784;BME280;9520;50.954;6.968;2023-04-28T00:39:07;100660.28;;;20.20;34.24
18784;BME280;9520;50.954;6.968;2023-04-28T00:39:30;100665.56;;;20.22;34.25
18784;BME280;9520;50.954;6.968;2023-04-28T00:39:56;100667.25;;;20.23;34.20
18784;BME280;9520;50.954;6.968;2023-04-28T00:40:21;100665.44;;;20.23;34.40
18784;BME280;9520;50.954;6.968;2023-04-28T00:40:42;100659.06;;;20.26;34.05
18784;BME280;9520;50.954;6.968;2023-04-28T00:41:04;100657.53;;;20.22;34.20
18784;BME280;9520;50.954;6.968;2023-04-28T00:41:26;100659.06;;;20.26;34.51
18784;BME280;9520;50.954;6.968;2023-04-28T00:41:48;100663.91;;;20.19;34.83
18784;BME280;9520;50.954;6.968;2023-04-28T00:42:13;100663.75;;;20.22;34.32
18784;BME280;9520;50.954;6.968;2023-04-28T00:42:35;100656.31;;;20.27;34.08
18784;BME280;9520;50.954;6.968;2023-04-28T00:42:57;100650.44;;;20.21;34.16
18784;BME280;9520;50.954;6.968;2023-04-28T00:43:20;100632.97;;;20.14;34.19
18784;BME280;9520;50.954;6.968;2023-04-28T00:43:45;100648.19;;;20.29;34.01
18784;BME280;9520;50.954;6.968;2023-04-28T00:44:07;100658.78;;;20.32;34.00
18784;BME280;9520;50.954;6.968;2023-04-28T00:44:29;100657.72;;;20.35;34.04
18784;BME280;9520;50.954;6.968;2023-04-28T00:44:51;100656.22;;;20.29;34.27
18784;BME280;9520;50.954;6.968;2023-04-28T00:45:14;100652.78;;;20.27;34.55
18784;BME280;9520;50.954;6.968;2023-04-28T00:45:36;100647.41;;;20.27;34.50
18784;BME280;9520;50.954;6.968;2023-04-28T00:45:58;100645.94;;;20.21;34.42
18784;BME280;9520;50.954;6.968;2023-04-28T00:46:23;100655.28;;;20.30;34.38
18784;BME280;9520;50.954;6.968;2023-04-28T00:46:46;100643.09;;;20.24;34.54
18784;BME280;9520;50.954;6.968;2023-04-28T00:47:08;100654.38;;;20.31;34.79
18784;BME280;9520;50.954;6.968;2023-04-28T00:47:30;100643.69;;;20.30;34.34
18784;BME280;9520;50.954;6.968;2023-04-28T00:47:52;100651.28;;;20.21;34.76
18784;BME280;9520;50.954;6.968;2023-04-28T00:48:16;100649.50;;;20.22;34.98
18784;BME280;9520;50.954;6.968;2023-04-28T00:48:38;100648.63;;;20.21;35.06
18784;BME280;9520;50.954;6.968;2023-04-28T00:49:00;100645.84;;;20.23;34.95
18784;BME280;9520;50.954;6.968;2023-04-28T00:49:22;100649.22;;;20.11;35.27
18784;BME280;9520;50.954;6.968;2023-04-28T00:49:44;100634.59;;;20.01;34.86
18784;BME280;9520;50.954;6.968;2023-04-28T00:50:08;100654.13;;;20.18;35.49
18784;BME280;9520;50.954;6.968;2023-04-28T00:50:31;100651.44;;;20.18;34.92
18784;BME280;9520;50.954;6.968;2023-04-28T00:50:53;100650.44;;;20.21;34.52
18784;BME280;9520;50.954;6.968;2023-04-28T00:51:15;100653.44;;;20.15;34.78
18784;BME280;9520;50.954;6.968;2023-04-28T00:51:39;100650.50;;;20.19;34.51
18784;BME280;9520;50.954;6.968;2023-04-28T00:52:04;100651.19;;;20.23;34.55
18784;BME280;9520;50.954;6.968;2023-04-28T00:52:27;100651.97;;;20.25;34.65
18784;BME280;9520;50.954;6.968;2023-04-28T00:52:49;100651.81;;;20.28;35.03
18784;BME280;9520;50.954;6.968;2023-04-28T00:53:13;100651.72;;;20.30;34.95
18784;BME280;9520;50.954;6.968;2023-04-28T00:53:36;100656.09;;;20.32;34.67
18784;BME280;9520;50.954;6.968;2023-04-28T00:53:59;100651.69;;;20.31;34.96
18784;BME280;9520;50.954;6.968;2023-04-28T00:54:22;100658.78;;;20.32;35.09
18784;BME280;9520;50.954;6.968;2023-04-28T00:54:45;100651.72;;;20.30;35.22
18784;BME280;9520;50.954;6.968;2023-04-28T00:55:14;100656.22;;;20.29;35.04
18784;BME280;9520;50.954;6.968;2023-04-28T00:55:37;100651.69;;;20.14;34.74
18784;BME280;9520;50.954;6.968;2023-04-28T00:56:05;100651.56;;;20.17;34.69
18784;BME280;9520;50.954;6.968;2023-04-28T00:56:28;100655.72;;;20.22;34.92
18784;BME280;9520;50.954;6.968;2023-04-28T00:56:51;100656.56;;;20.23;35.32
18784;BME280;9520;50.954;6.968;2023-04-28T00:57:14;100656.47;;;20.24;35.11
18784;BME280;9520;50.954;6.968;2023-04-28T00:57:36;100653.78;;;20.24;34.77
18784;BME280;9520;50.954;6.968;2023-04-28T00:57:59;100650.16;;;20.25;34.63
18784;BME280;9520;50.954;6.968;2023-04-28T00:58:21;100648.28;;;20.27;34.88
18784;BME280;9520;50.954;6.968;2023-04-28T00:58:43;100649.38;;;20.23;34.60
18784;BME280;9520;50.954;6.968;2023-04-28T00:59:05;100656.31;;;20.27;34.83
18784;BME280;9520;50.954;6.968;2023-04-28T00:59:27;100649.22;;;20.26;34.48
18784;BME280;9520;50.954;6.968;2023-04-28T00:59:49;100662.63;;;20.26;34.35
18784;BME280;9520;50.954;6.968;2023-04-28T01:00:14;100618.00;;;20.10;34.30
18784;BME280;9520;50.954;6.968;2023-04-28T01:00:36;100650.09;;;20.27;34.59
18784;BME280;9520;50.954;6.968;2023-04-28T01:01:03;100631.31;;;20.11;34.76
18784;BME280;9520;50.954;6.968;2023-04-28T01:01:25;100645.16;;;20.19;35.09
18784;BME280;9520;50.954;6.968;2023-04-28T01:01:49;100651.28;;;20.21;35.62
18784;BME280;9520;50.954;6.968;2023-04-28T01:02:11;100646.28;;;20.15;35.64
18784;BME280;9520;50.954;6.968;2023-04-28T01:02:38;100646.84;;;20.05;35.71
18784;BME280;9520;50.954;6.968;2023-04-28T01:03:01;100646.53;;;20.11;35.51
18784;BME280;9520;50.954;6.968;2023-04-28T01:03:27;100641.69;;;20.02;35.34
18784;BME280;9520;50.954;6.968;2023-04-28T01:03:49;100614.44;;;19.94;34.81
18784;BME280;9520;50.954;6.968;2023-04-28T01:04:13;100639.44;;;20.10;35.04
18784;BME280;9520;50.954;6.968;2023-04-28T01:04:37;100650.75;;;20.15;34.63
18784;BME280;9520;50.954;6.968;2023-04-28T01:05:00;100650.69;;;20.16;34.58
18784;BME280;9520;50.954;6.968;2023-04-28T01:05:24;100630.97;;;20.02;34.47
18784;BME280;9520;50.954;6.968;2023-04-28T01:05:47;100648.34;;;20.10;34.50
18784;BME280;9520;50.954;6.968;2023-04-28T01:06:09;100649.47;;;20.06;34.67
18784;BME280;9520;50.954;6.968;2023-04-28T01:06:34;100641.25;;;20.09;34.91
18784;BME280;9520;50.954;6.968;2023-04-28T01:06:57;100642.28;;;20.07;35.42
18784;BME280;9520;50.954;6.968;2023-04-28T01:07:20;100652.81;;;20.10;35.19
18784;BME280;9520;50.954;6.968;2023-04-28T01:07:42;100647.28;;;20.13;34.87
18784;BME280;9520;50.954;6.968;2023-04-28T01:08:05;100649.81;;;20.16;34.67
18784;BME280;9520;50.954;6.968;2023-04-28T01:08:29;100646.19;;;20.17;34.66
18784;BME280;9520;50.954;6.968;2023-04-28T01:08:51;100649.75;;;20.17;34.66
18784;BME280;9520;50.954;6.968;2023-04-28T01:09:17;100649.38;;;20.08;34.63
18784;BME280;9520;50.954;6.968;2023-04-28T01:09:39;100650.06;;;20.11;34.53
18784;BME280;9520;50.954;6.968;2023-04-28T01:10:03;100651.69;;;20.14;34.74
18784;BME280;9520;50.954;6.968;2023-04-28T01:10:29;100648.78;;;20.18;35.24
18784;BME280;9520;50.954;6.968;2023-04-28T01:10:57;100647.81;;;20.19;34.62
18784;BME280;9520;50.954;6.968;2023-04-28T01:11:43;100650.44;;;20.21;34.98
18784;BME280;9520;50.954;6.968;2023-04-28T01:12:08;100654.06;;;20.20;35.64
18784;BME280;9520;50.954;6.968;2023-04-28T01:12:40;100646.19;;;20.17;36.32
18784;BME280;9520;50.954;6.968;2023-04-28T01:13:02;100649.81;;;20.16;36.44
18784;BME280;9520;50.954;6.968;2023-04-28T01:13:25;100644.03;;;20.08;36.64
18784;BME280;9520;50.954;6.968;2023-04-28T01:13:47;100652.56;;;20.14;36.71
18784;BME280;9520;50.954;6.968;2023-04-28T01:14:09;100660.69;;;20.13;36.79
18784;BME280;9520;50.954;6.968;2023-04-28T01:14:35;100653.44;;;20.15;37.04
18784;BME280;9520;50.954;6.968;2023-04-28T01:14:57;100658.72;;;20.16;37.21
18784;BME280;9520;50.954;6.968;2023-04-28T01:15:20;100663.22;;;20.16;37.56
18784;BME280;9520;50.954;6.968;2023-04-28T01:15:44;100648.94;;;20.15;36.94
18784;BME280;9520;50.954;6.968;2023-04-28T01:16:09;100653.19;;;20.19;37.16
18784;BME280;9520;50.954;6.968;2023-04-28T01:16:32;100600.28;;;19.92;36.70
18784;BME280;9520;50.954;6.968;2023-04-28T01:16:55;100651.56;;;20.17;36.71
18784;BME280;9520;50.954;6.968;2023-04-28T01:17:18;100651.44;;;20.18;36.88
18784;BME280;9520;50.954;6.968;2023-04-28T01:17:40;100655.94;;;20.18;36.82
18784;BME280;9520;50.954;6.968;2023-04-28T01:18:04;100652.75;;;20.11;37.78
18784;BME280;9520;50.954;6.968;2023-04-28T01:18:26;100647.28;;;20.13;38.06
18784;BME280;9520;50.954;6.968;2023-04-28T01:18:48;100646.72;;;20.08;38.59
18784;BME280;9520;50.954;6.968;2023-04-28T01:19:15;100649.97;;;20.13;38.49
18784;BME280;9520;50.954;6.968;2023-04-28T01:19:41;100645.59;;;20.12;39.17
18784;BME280;9520;50.954;6.968;2023-04-28T01:20:06;100648.34;;;20.10;39.38
18784;BME280;9520;50.954;6.968;2023-04-28T01:20:29;100653.78;;;20.09;39.69
18784;BME280;9520;50.954;6.968;2023-04-28T01:20:51;100649.28;;;20.09;39.44
18784;BME280;9520;50.954;6.968;2023-04-28T01:21:13;100654.88;;;20.05;39.85
18784;BME280;9520;50.954;6.968;2023-04-28T01:21:37;100649.47;;;20.06;39.74
18784;BME280;9520;50.954;6.968;2023-04-28T01:22:10;100637.28;;;20.01;40.03
18784;BME280;9520;50.954;6.968;2023-04-28T01:22:36;100647.78;;;20.04;39.87
18784;BME280;9520;50.954;6.968;2023-04-28T01:22:58;100647.97;;;20.01;40.01
18784;BME280;9520;50.954;6.968;2023-04-28T01:23:22;100623.53;;;19.91;39.62
18784;BME280;9520;50.954;6.968;2023-04-28T01:23:46;100645.22;;;20.02;40.10
18784;BME280;9520;50.954;6.968;2023-04-28T01:24:10;100653.16;;;20.04;40.72
18784;BME280;9520;50.954;6.968;2023-04-28T01:24:33;100653.25;;;20.02;40.74
18784;BME280;9520;50.954;6.968;2023-04-28T01:24:58;100644.69;;;19.96;40.95
18784;BME280;9520;50.954;6.968;2023-04-28T01:25:21;100647.19;;;19.99;41.37
18784;BME280;9520;50.954;6.968;2023-04-28T01:25:43;100640.88;;;20.00;41.21
18784;BME280;9520;50.954;6.968;2023-04-28T01:26:05;100641.22;;;19.94;40.73
18784;BME280;9520;50.954;6.968;2023-04-28T01:26:27;100648.31;;;19.95;40.67
18784;BME280;9520;50.954;6.968;2023-04-28T01:26:49;100643.81;;;19.95;41.01
18784;BME280;9520;50.954;6.968;2023-04-28T01:27:12;100610.09;;;19.75;41.18
18784;BME280;9520;50.954;6.968;2023-04-28T01:27:35;100644.69;;;19.96;40.78
18784;BME280;9520;50.954;6.968;2023-04-28T01:27:57;100648.16;;;19.98;40.93
18784;BME280;9520;50.954;6.968;2023-04-28T01:28:19;100651.66;;;19.98;40.47
18784;BME280;9520;50.954;6.968;2023-04-28T01:28:41;100654.44;;;19.97;40.03
18784;BME280;9520;50.954;6.968;2023-04-28T01:29:04;100650.13;;;19.94;39.74
18784;BME280;9520;50.954;6.968;2023-04-28T01:29:26;100642.00;;;19.96;40.38
18784;BME280;9520;50.954;6.968;2023-04-28T01:29:48;100635.16;;;19.90;40.95
18784;BME280;9520;50.954;6.968;2023-04-28T01:30:10;100643.88;;;19.94;41.02
18784;BME280;9520;50.954;6.968;2023-04-28T01:30:34;100642.09;;;19.94;41.03
18784;BME280;9520;50.954;6.968;2023-04-28T01:30:56;100645.69;;;19.93;41.24
18784;BME280;9520;50.954;6.968;2023-04-28T01:31:18;100645.81;;;19.92;41.08
18784;BME280;9520;50.954;6.968;2023-04-28T01:31:40;100636.22;;;19.88;41.00
18784;BME280;9520;50.954;6.968;2023-04-28T01:32:02;100638.72;;;19.91;41.60
18784;BME280;9520;50.954;6.968;2023-04-28T01:32:29;100646.75;;;19.91;41.36
18784;BME280;9520;50.954;6.968;2023-04-28T01:32:51;100638.78;;;19.89;40.58
18784;BME280;9520;50.954;6.968;2023-04-28T01:33:14;100638.78;;;19.89;41.22
18784;BME280;9520;50.954;6.968;2023-04-28T01:33:37;100639.03;;;19.84;41.67
18784;BME280;9520;50.954;6.968;2023-04-28T01:34:03;100641.47;;;19.89;42.03
18784;BME280;9520;50.954;6.968;2023-04-28T01:34:25;100643.38;;;19.87;41.86
18784;BME280;9520;50.954;6.968;2023-04-28T01:34:46;100642.50;;;19.87;42.02
18784;BME280;9520;50.954;6.968;2023-04-28T01:35:08;100639.28;;;19.80;42.24
18784;BME280;9520;50.954;6.968;2023-04-28T01:35:31;100641.97;;;19.80;41.39
18784;BME280;9520;50.954;6.968;2023-04-28T01:35:56;100646.44;;;19.79;41.36
18784;BME280;9520;50.954;6.968;2023-04-28T01:36:18;100638.41;;;19.79;41.40
18784;BME280;9520;50.954;6.968;2023-04-28T01:36:40;100642.03;;;19.78;41.65
18784;BME280;9520;50.954;6.968;2023-04-28T01:37:03;100646.44;;;19.79;41.50
18784;BME280;9520;50.954;6.968;2023-04-28T01:37:26;100645.50;;;19.80;41.48
18784;BME280;9520;50.954;6.968;2023-04-28T01:37:48;100650.00;;;19.80;41.52
18784;BME280;9520;50.954;6.968;2023-04-28T01:38:13;100646.69;;;19.75;41.74
18784;BME280;9520;50.954;6.968;2023-04-28T01:38:37;100647.38;;;19.63;41.09
18784;BME280;9520;50.954;6.968;2023-04-28T01:39:01;100649.81;;;19.67;40.95
18784;BME280;9520;50.954;6.968;2023-04-28T01:39:26;100652.38;;;19.69;40.96
18784;BME280;9520;50.954;6.968;2023-04-28T01:39:50;100654.09;;;19.70;41.02
18784;BME280;9520;50.954;6.968;2023-04-28T01:40:12;100646.09;;;19.70;41.69
18784;BME280;9520;50.954;6.968;2023-04-28T01:40:37;100645.22;;;19.69;41.50
18784;BME280;9520;50.954;6.968;2023-04-28T01:40:58;100650.56;;;19.69;41.46
18784;BME280;9520;50.954;6.968;2023-04-28T01:41:20;100646.88;;;19.72;41.90
18784;BME280;9520;50.954;6.968;2023-04-28T01:41:45;100644.34;;;19.69;41.40
18784;BME280;9520;50.954;6.968;2023-04-28T01:42:08;100645.38;;;19.66;41.11
18784;BME280;9520;50.954;6.968;2023-04-28T01:42:29;100644.44;;;19.67;41.78
18784;BME280;9520;50.954;6.968;2023-04-28T01:42:55;100648.75;;;19.70;41.69
18784;BME280;9520;50.954;6.968;2023-04-28T01:43:17;100644.44;;;19.67;42.26
18784;BME280;9520;50.954;6.968;2023-04-28T01:43:39;100647.13;;;19.67;41.91
18784;BME280;9520;50.954;6.968;2023-04-28T01:44:03;100648.88;;;19.68;41.93
18784;BME280;9520;50.954;6.968;2023-04-28T01:44:27;100648.75;;;19.70;42.45
18784;BME280;9520;50.954;6.968;2023-04-28T01:44:49;100651.69;;;19.65;42.24
18784;BME280;9520;50.954;6.968;2023-04-28T01:45:12;100607.25;;;19.46;41.33
18784;BME280;9520;50.954;6.968;2023-04-28T01:45:33;100643.72;;;19.64;41.45
18784;BME280;9520;50.954;6.968;2023-04-28T01:45:55;100644.69;;;19.63;41.97
18784;BME280;9520;50.954;6.968;2023-04-28T01:46:18;100645.63;;;19.62;42.34
18784;BME280;9520;50.954;6.968;2023-04-28T01:46:40;100621.50;;;19.46;42.13
18784;BME280;9520;50.954;6.968;2023-04-28T01:47:02;100628.16;;;19.55;41.67
18784;BME280;9520;50.954;6.968;2023-04-28T01:47:28;100639.66;;;19.57;42.02
18784;BME280;9520;50.954;6.968;2023-04-28T01:47:50;100638.78;;;19.56;42.17
18784;BME280;9520;50.954;6.968;2023-04-28T01:48:13;100643.19;;;19.57;42.20
18784;BME280;9520;50.954;6.968;2023-04-28T01:48:36;100634.22;;;19.58;41.85
18784;BME280;9520;50.954;6.968;2023-04-28T01:48:58;100640.44;;;19.59;41.78
18784;BME280;9520;50.954;6.968;2023-04-28T01:49:20;100633.25;;;19.59;42.12
18784;BME280;9520;50.954;6.968;2023-04-28T01:49:42;100634.06;;;19.61;42.30
18784;BME280;9520;50.954;6.968;2023-04-28T01:50:05;100638.53;;;19.61;42.09
18784;BME280;9520;50.954;6.968;2023-04-28T01:50:29;100638.53;;;19.61;42.01
18784;BME280;9520;50.954;6.968;2023-04-28T01:50:51;100633.25;;;19.59;42.70
18784;BME280;9520;50.954;6.968;2023-04-28T01:51:13;100633.25;;;19.59;42.59
18784;BME280;9520;50.954;6.968;2023-04-28T01:51:35;100637.69;;;19.60;42.37
18784;BME280;9520;50.954;6.968;2023-04-28T01:52:01;100639.59;;;19.58;42.30
18784;BME280;9520;50.954;6.968;2023-04-28T01:52:25;100632.41;;;19.59;42.33
18784;BME280;9520;50.954;6.968;2023-04-28T01:52:48;100635.19;;;19.57;42.21
18784;BME280;9520;50.954;6.968;2023-04-28T01:53:10;100624.78;;;19.51;41.97
18784;BME280;9520;50.954;6.968;2023-04-28T01:53:32;100629.19;;;19.52;42.08
18784;BME280;9520;50.954;6.968;2023-04-28T01:53:54;100614.34;;;19.47;41.96
18784;BME280;9520;50.954;6.968;2023-04-28T01:54:19;100637.38;;;19.49;42.09
18784;BME280;9520;50.954;6.968;2023-04-28T01:54:42;100627.47;;;19.51;42.03
18784;BME280;9520;50.954;6.968;2023-04-28T01:55:07;100631.06;;;19.50;42.00
18784;BME280;9520;50.954;6.968;2023-04-28T01:55:33;100637.53;;;19.46;42.17
18784;BME280;9520;50.954;6.968;2023-04-28T01:55:58;100637.47;;;19.48;42.12
18784;BME280;9520;50.954;6.968;2023-04-28T01:56:20;100633.19;;;19.44;41.94
18784;BME280;9520;50.954;6.968;2023-04-28T01:56:43;100633.06;;;19.47;41.69
18784;BME280;9520;50.954;6.968;2023-04-28T01:57:08;100634.88;;;19.46;41.84
18784;BME280;9520;50.954;6.968;2023-04-28T01:57:30;100622.28;;;19.48;41.88
18784;BME280;9520;50.954;6.968;2023-04-28T01:57:55;100640.91;;;19.50;41.88
18784;BME280;9520;50.954;6.968;2023-04-28T01:58:19;100633.00;;;19.48;41.87
18784;BME280;9520;50.954;6.968;2023-04-28T01:58:41;100635.72;;;19.47;42.04
18784;BME280;9520;50.954;6.968;2023-04-28T01:59:03;100634.78;;;19.48;42.10
18784;BME280;9520;50.954;6.968;2023-04-28T01:59:28;100641.00;;;19.48;42.11
18784;BME280;9520;50.954;6.968;2023-04-28T01:59:50;100633.94;;;19.47;42.09
18784;BME280;9520;50.954;6.968;2023-04-28T02:00:12;100635.66;;;19.48;41.94
18784;BME280;9520;50.954;6.968;2023-04-28T02:00:41;100638.41;;;19.47;41.98
18784;BME280;9520;50.954;6.968;2023-04-28T02:01:04;100634.88;;;19.46;42.54
18784;BME280;9520;50.954;6.968;2023-04-28T02:01:26;100646.56;;;19.44;42.82
18784;BME280;9520;50.954;6.968;2023-04-28T02:01:49;100643.09;;;19.41;42.66
18784;BME280;9520;50.954;6.968;2023-04-28T02:02:10;100646.56;;;19.44;42.55
18784;BME280;9520;50.954;6.968;2023-04-28T02:02:33;100650.19;;;19.42;42.77
18784;BME280;9520;50.954;6.968;2023-04-28T02:02:55;100651.06;;;19.43;42.90